Time;durP1;ratioP1;P1;durP2;ratioP2;P2;SDS_P1;SDS_P2;PMS_P1;PMS_P2;Temp;Humidity;BMP_temperature;BMP_pressure;BME280_temperature;BME280_humidity;BME280_pressure;Samples;Min_cycle;Max_cycle;Signal;HPM_P1;HPM_P2
2023/01/20 00:01:09;;;;;;;16.58;8.75;;;-0.70;99.90;;;;;;5014174;28;20053;-77
2023/01/20 00:03:35;;;;;;;15.93;9.07;;;-0.70;99.90;;;;;;5015187;28;20072;-77
2023/01/20 00:06:01;;;;;;;20.83;8.75;;;-0.80;99.90;;;;;;5014032;28;20022;-76
2023/01/20 00:08:27;;;;;;;17.85;9.52;;;-0.80;99.90;;;;;;5012342;28;20387;-76
2023/01/20 00:10:55;;;;;;;18.00;9.07;;;-0.80;99.90;;;;;;5013542;28;20018;-77
2023/01/20 00:13:27;;;;;;;20.05;9.00;;;-0.80;99.90;;;;;;5012333;28;20806;-76
2023/01/20 00:15:52;;;;;;;19.02;9.20;;;-0.80;99.90;;;;;;5012056;28;20631;-76
2023/01/20 00:18:18;;;;;;;15.88;7.97;;;-0.80;99.90;;;;;;5013467;28;20080;-77
2023/01/20 00:20:44;;;;;;;18.83;8.43;;;-0.80;99.90;;;;;;5012045;28;20079;-76
2023/01/20 00:23:15;;;;;;;16.38;7.82;;;-0.80;99.90;;;;;;5013303;28;20080;-77
2023/01/20 00:25:41;;;;;;;16.67;8.23;;;-0.80;99.90;;;;;;5011930;28;20065;-77
2023/01/20 00:28:13;;;;;;;17.35;7.45;;;-0.80;99.90;;;;;;5012033;28;20467;-77
2023/01/20 00:30:38;;;;;;;14.18;7.50;;;-0.80;99.90;;;;;;5013131;28;20033;-76
2023/01/20 00:33:13;;;;;;;12.23;6.80;;;-0.80;99.90;;;;;;5011316;28;20565;-76
2023/01/20 00:35:39;;;;;;;13.65;6.70;;;-0.80;99.90;;;;;;5013362;28;20025;-77
2023/01/20 00:38:04;;;;;;;15.75;7.30;;;-0.80;99.90;;;;;;5013184;28;20080;-77
2023/01/20 00:40:36;;;;;;;13.30;7.32;;;-0.90;99.90;;;;;;5013139;28;20036;-76
2023/01/20 00:43:01;;;;;;;15.00;7.30;;;-0.90;99.90;;;;;;5013061;28;20037;-76
2023/01/20 00:45:27;;;;;;;13.40;7.22;;;-0.90;99.90;;;;;;5011790;28;20031;-77
2023/01/20 00:47:53;;;;;;;14.07;7.35;;;-0.90;99.90;;;;;;5013097;28;20030;-76
2023/01/20 00:50:24;;;;;;;12.82;7.30;;;-0.90;99.90;;;;;;5012910;28;20057;-77
2023/01/20 00:52:50;;;;;;;13.02;6.85;;;-0.90;99.90;;;;;;5011701;28;20022;-77
2023/01/20 00:55:15;;;;;;;16.10;6.63;;;-0.90;99.90;;;;;;5011415;28;20041;-77
2023/01/20 00:57:44;;;;;;;12.30;6.43;;;-0.90;99.90;;;;;;5011452;28;20028;-77
2023/01/20 01:00:17;;;;;;;13.27;7.18;;;-0.90;99.90;;;;;;5012804;28;20502;-77
2023/01/20 01:02:43;;;;;;;12.05;6.63;;;-0.90;99.90;;;;;;5012816;28;20376;-76
2023/01/20 01:05:09;;;;;;;11.80;6.78;;;-0.90;99.90;;;;;;5012603;28;20037;-76
2023/01/20 01:07:34;;;;;;;13.32;5.95;;;-0.90;99.90;;;;;;5012814;28;20040;-76
2023/01/20 01:10:00;;;;;;;13.15;6.88;;;-0.90;99.90;;;;;;5012546;28;20026;-77
2023/01/20 01:12:26;;;;;;;15.77;6.65;;;-0.90;99.90;;;;;;5012754;28;20048;-77
2023/01/20 01:15:01;;;;;;;10.07;5.75;;;-0.90;99.90;;;;;;5012633;28;20018;-77
2023/01/20 01:17:30;;;;;;;11.73;6.13;;;-0.90;99.90;;;;;;5012588;28;20101;-77
2023/01/20 01:19:55;;;;;;;10.43;5.38;;;-0.90;99.90;;;;;;5012556;28;20113;-77
2023/01/20 01:22:21;;;;;;;13.50;6.28;;;-1.00;99.90;;;;;;5012969;28;20110;-77
2023/01/20 01:24:47;;;;;;;14.18;5.60;;;-0.90;99.90;;;;;;5012595;28;20038;-77
2023/01/20 01:27:19;;;;;;;12.82;5.90;;;-0.90;99.90;;;;;;5012980;28;20029;-77
2023/01/20 01:29:45;;;;;;;11.23;5.18;;;-0.90;99.90;;;;;;5002919;28;20026;-76
2023/01/20 01:32:10;;;;;;;10.77;5.88;;;-0.90;99.90;;;;;;5012678;28;20559;-77
2023/01/20 01:34:39;;;;;;;10.82;5.78;;;-0.90;99.90;;;;;;5012569;28;20041;-77
2023/01/20 01:37:05;;;;;;;15.13;6.75;;;-0.90;99.90;;;;;;5033954;23;20025;-77
2023/01/20 01:39:30;;;;;;;12.02;5.93;;;-0.80;99.90;;;;;;4981075;28;20469;-78
2023/01/20 01:41:59;;;;;;;10.00;5.78;;;-0.80;99.90;;;;;;4982424;28;20050;-77
2023/01/20 01:44:26;;;;;;;12.70;6.53;;;-0.80;99.90;;;;;;4988764;28;20066;-77
2023/01/20 01:46:52;;;;;;;16.40;7.10;;;-0.80;99.90;;;;;;4970744;28;20058;-78
2023/01/20 01:49:28;;;;;;;12.05;6.05;;;-0.80;99.90;;;;;;4983881;28;20645;-78
2023/01/20 01:52:03;;;;;;;12.45;6.07;;;-0.70;99.90;;;;;;4978765;28;20054;-78
2023/01/20 01:54:42;;;;;;;12.90;6.38;;;-0.70;99.90;;;;;;4972430;28;20037;-77
2023/01/20 01:57:08;;;;;;;14.55;5.72;;;-0.70;99.90;;;;;;4967290;28;20034;-76
2023/01/20 01:59:43;;;;;;;13.82;7.10;;;-0.70;99.90;;;;;;4969311;28;20027;-77
2023/01/20 02:02:08;;;;;;;9.98;5.53;;;-0.60;99.90;;;;;;4974508;28;20091;-77
2023/01/20 02:04:37;;;;;;;13.35;5.70;;;-0.60;99.90;;;;;;4973169;28;20039;-78
2023/01/20 02:07:07;;;;;;;12.23;5.75;;;-0.60;99.90;;;;;;4971449;28;20059;-77
2023/01/20 02:09:34;;;;;;;13.07;5.88;;;-0.60;99.90;;;;;;4970899;28;20300;-78
2023/01/20 02:12:05;;;;;;;10.70;5.95;;;-0.60;99.90;;;;;;4971261;28;20321;-77
2023/01/20 02:14:40;;;;;;;10.25;5.75;;;-0.60;99.90;;;;;;4974063;28;20035;-77
2023/01/20 02:17:26;;;;;;;9.43;5.70;;;-0.60;99.90;;;;;;4973265;28;20047;-78
2023/01/20 02:20:11;;;;;;;14.98;5.60;;;-0.60;99.90;;;;;;4985982;28;20059;-77
2023/01/20 02:22:52;;;;;;;11.77;5.97;;;-0.60;99.90;;;;;;4975408;28;20030;-77
2023/01/20 02:25:23;;;;;;;12.05;5.80;;;-0.60;99.90;;;;;;4970393;28;20046;-77
2023/01/20 02:28:27;;;;;;;13.13;5.75;;;-0.60;99.90;;;;;;4973137;28;20035;-77
2023/01/20 02:31:16;;;;;;;13.48;5.47;;;-0.60;99.90;;;;;;4972204;28;20190;-77
2023/01/20 02:33:58;;;;;;;14.32;5.43;;;-0.60;99.90;;;;;;4972384;28;20419;-77
2023/01/20 02:36:57;;;;;;;12.00;4.97;;;-0.60;99.90;;;;;;4972317;28;20034;-78
2023/01/20 02:39:35;;;;;;;12.35;5.38;;;-0.60;99.90;;;;;;4970006;28;20093;-81
2023/01/20 02:42:09;;;;;;;14.23;5.88;;;-0.60;99.90;;;;;;4968241;28;20114;-76
2023/01/20 02:44:40;;;;;;;13.25;5.65;;;-0.70;99.90;;;;;;4974590;28;20070;-78
2023/01/20 02:47:29;;;;;;;12.73;5.47;;;-0.60;99.90;;;;;;4976643;28;20077;-79
2023/01/20 02:50:12;;;;;;;10.80;5.10;;;-0.70;99.90;;;;;;4972164;28;20030;-77
2023/01/20 02:52:44;;;;;;;12.38;5.82;;;-0.60;99.90;;;;;;4975074;28;20022;-78
2023/01/20 02:55:18;;;;;;;11.02;5.30;;;-0.70;99.90;;;;;;4973438;28;20019;-76
2023/01/20 02:57:49;;;;;;;11.02;5.60;;;-0.70;99.90;;;;;;4970209;28;20060;-76
2023/01/20 03:00:21;;;;;;;9.15;5.15;;;-0.70;99.90;;;;;;4969827;28;20411;-76
2023/01/20 03:02:50;;;;;;;10.57;5.88;;;-0.70;99.90;;;;;;4965883;28;20023;-76
2023/01/20 03:05:27;;;;;;;13.57;6.53;;;-0.70;99.90;;;;;;4972038;28;20081;-76
2023/01/20 03:07:57;;;;;;;12.20;6.03;;;-0.70;99.90;;;;;;4969828;28;20390;-77
2023/01/20 03:10:25;;;;;;;10.88;6.13;;;-0.80;99.90;;;;;;4971443;28;20043;-77
2023/01/20 03:13:18;;;;;;;12.98;5.78;;;-0.80;99.90;;;;;;4976935;28;20519;-77
2023/01/20 03:16:01;;;;;;;14.20;6.45;;;-0.80;99.90;;;;;;4986995;28;20039;-77
2023/01/20 03:18:33;;;;;;;10.48;5.72;;;-0.80;99.90;;;;;;4974086;28;20045;-77
2023/01/20 03:21:01;;;;;;;11.82;6.10;;;-0.80;99.90;;;;;;4971663;28;20035;-77
2023/01/20 03:23:29;;;;;;;13.60;6.32;;;-0.80;99.90;;;;;;4970124;28;20033;-77
2023/01/20 03:25:56;;;;;;;12.45;5.53;;;-0.90;99.90;;;;;;4973231;28;20095;-77
2023/01/20 03:28:25;;;;;;;12.48;6.15;;;-0.90;99.90;;;;;;4967331;28;20614;-76
2023/01/20 03:30:55;;;;;;;16.17;6.07;;;-0.90;99.90;;;;;;4969984;28;20066;-77
2023/01/20 03:33:30;;;;;;;10.85;5.78;;;-1.00;99.90;;;;;;4973813;28;20114;-77
2023/01/20 03:35:56;;;;;;;13.55;5.78;;;-1.00;99.90;;;;;;4973515;28;20029;-77
2023/01/20 03:38:25;;;;;;;11.38;5.88;;;-1.00;99.90;;;;;;4975221;28;20147;-77
2023/01/20 03:41:00;;;;;;;11.23;6.30;;;-1.00;99.90;;;;;;4974106;28;20502;-77
2023/01/20 03:43:40;;;;;;;14.23;5.85;;;-1.00;99.90;;;;;;4976782;28;20062;-77
2023/01/20 03:46:15;;;;;;;13.88;6.45;;;-1.00;99.90;;;;;;4970775;28;20035;-76
2023/01/20 03:48:43;;;;;;;14.50;6.15;;;-1.10;99.90;;;;;;4971379;28;20018;-76
2023/01/20 03:51:18;;;;;;;10.23;5.68;;;-1.10;99.90;;;;;;4973178;28;20038;-76
2023/01/20 03:53:51;;;;;;;11.45;5.65;;;-1.10;99.90;;;;;;4969888;28;20030;-76
2023/01/20 03:56:35;;;;;;;12.27;6.18;;;-1.00;99.90;;;;;;4969173;28;20027;-76
2023/01/20 03:59:06;;;;;;;12.57;5.95;;;-1.00;99.90;;;;;;4969587;28;20043;-77
2023/01/20 04:01:42;;;;;;;16.27;6.00;;;-1.00;99.90;;;;;;4972481;28;20114;-76
2023/01/20 04:04:11;;;;;;;11.77;5.65;;;-1.00;99.90;;;;;;4971741;28;20037;-77
2023/01/20 04:06:40;;;;;;;12.32;5.78;;;-1.00;99.90;;;;;;4971985;28;20365;-79
2023/01/20 04:09:22;;;;;;;12.52;5.47;;;-1.00;99.90;;;;;;4967862;28;20491;-77
2023/01/20 04:11:48;;;;;;;9.65;5.47;;;-0.90;99.90;;;;;;4973895;28;20031;-77
2023/01/20 04:14:13;;;;;;;9.52;5.25;;;-0.90;99.90;;;;;;4973005;28;20122;-77
2023/01/20 04:16:39;;;;;;;10.70;5.80;;;-0.80;99.90;;;;;;4971233;28;20538;-78
2023/01/20 04:19:11;;;;;;;8.55;4.47;;;-0.90;99.90;;;;;;4965929;28;20025;-79
2023/01/20 04:21:48;;;;;;;13.40;4.95;;;-0.90;99.90;;;;;;4968108;28;20050;-77
2023/01/20 04:24:24;;;;;;;10.18;4.90;;;-0.90;99.90;;;;;;4960920;28;20023;-77
2023/01/20 04:26:52;;;;;;;8.18;4.57;;;-0.90;99.90;;;;;;4975895;28;20034;-77
2023/01/20 04:29:18;;;;;;;8.50;4.90;;;-0.90;99.90;;;;;;4975345;28;20023;-77
2023/01/20 04:31:44;;;;;;;11.07;4.68;;;-0.90;99.90;;;;;;4974997;28;20039;-77
2023/01/20 04:34:14;;;;;;;9.48;4.80;;;-1.00;99.90;;;;;;4975707;28;20036;-77
2023/01/20 04:36:40;;;;;;;8.55;4.68;;;-1.00;99.90;;;;;;4976565;28;20116;-78
2023/01/20 04:39:05;;;;;;;10.13;5.07;;;-1.00;99.90;;;;;;4975803;28;20038;-77
2023/01/20 04:41:34;;;;;;;9.98;5.20;;;-1.00;99.90;;;;;;4978206;28;20038;-76
2023/01/20 04:44:00;;;;;;;9.13;4.70;;;-1.10;99.90;;;;;;4971839;28;20591;-78
2023/01/20 04:46:25;;;;;;;7.78;4.20;;;-1.10;99.90;;;;;;4975554;28;20042;-76
2023/01/20 04:49:00;;;;;;;9.75;4.85;;;-1.20;99.90;;;;;;4972584;28;20035;-75
2023/01/20 04:51:30;;;;;;;14.27;4.95;;;-1.20;99.90;;;;;;4970510;28;20610;-75
2023/01/20 04:54:08;;;;;;;10.60;4.75;;;-1.20;99.90;;;;;;4973079;28;20031;-76
2023/01/20 04:56:36;;;;;;;7.68;4.45;;;-1.10;99.90;;;;;;4970182;28;20125;-75
2023/01/20 04:59:03;;;;;;;9.27;4.55;;;-1.10;99.90;;;;;;4971494;28;20034;-76
2023/01/20 05:01:29;;;;;;;9.30;4.95;;;-1.10;99.90;;;;;;4966828;28;20054;-76
2023/01/20 05:04:01;;;;;;;11.73;4.93;;;-1.10;99.90;;;;;;4973129;28;20031;-76
2023/01/20 05:06:26;;;;;;;12.48;5.60;;;-1.10;99.90;;;;;;4985194;28;20034;-76
2023/01/20 05:08:58;;;;;;;16.23;4.38;;;-1.10;99.90;;;;;;4969527;28;20503;-76
2023/01/20 05:11:29;;;;;;;11.95;5.35;;;-1.10;99.90;;;;;;4988347;28;20027;-76
2023/01/20 05:13:55;;;;;;;7.55;4.55;;;-1.10;99.90;;;;;;4969818;28;20038;-77
2023/01/20 05:16:30;;;;;;;9.35;5.25;;;-1.00;99.90;;;;;;4986811;28;20073;-77
2023/01/20 05:18:59;;;;;;;9.77;5.47;;;-1.00;99.90;;;;;;4973864;28;20026;-76
2023/01/20 05:21:25;;;;;;;10.38;5.07;;;-1.00;99.90;;;;;;4972191;28;20559;-77
2023/01/20 05:23:53;;;;;;;10.70;4.85;;;-1.00;99.90;;;;;;4974413;28;20050;-76
2023/01/20 05:26:19;;;;;;;9.52;5.00;;;-1.00;99.90;;;;;;4968406;28;20030;-77
2023/01/20 05:28:47;;;;;;;11.57;5.78;;;-1.00;99.90;;;;;;4974341;28;20023;-77
2023/01/20 05:31:13;;;;;;;10.23;5.05;;;-1.00;99.90;;;;;;4975312;28;20030;-77
2023/01/20 05:33:38;;;;;;;13.20;6.47;;;-1.00;99.90;;;;;;4972137;28;20028;-76
2023/01/20 05:36:09;;;;;;;13.27;5.63;;;-0.90;99.90;;;;;;4972804;28;20019;-76
2023/01/20 05:38:35;;;;;;;11.88;6.32;;;-1.00;99.90;;;;;;4975088;28;20388;-77
2023/01/20 05:41:02;;;;;;;9.90;5.88;;;-1.00;99.90;;;;;;4972085;28;20507;-74
2023/01/20 05:43:27;;;;;;;12.90;5.68;;;-1.00;99.90;;;;;;4966686;28;20030;-73
2023/01/20 05:45:57;;;;;;;14.32;6.68;;;-1.00;99.90;;;;;;4967977;28;20085;-73
2023/01/20 05:48:22;;;;;;;10.00;6.10;;;-1.00;99.90;;;;;;4966094;28;20035;-72
2023/01/20 05:50:49;;;;;;;13.68;6.97;;;-1.00;99.90;;;;;;4969355;28;20034;-73
2023/01/20 05:53:18;;;;;;;13.50;6.40;;;-1.00;99.90;;;;;;4967102;28;20098;-72
2023/01/20 05:55:44;;;;;;;12.30;6.68;;;-1.10;99.90;;;;;;4967137;28;20034;-75
2023/01/20 05:58:10;;;;;;;12.32;6.13;;;-1.10;99.90;;;;;;4973669;28;20022;-77
2023/01/20 06:00:36;;;;;;;12.02;6.72;;;-1.00;99.90;;;;;;4974951;28;20073;-76
2023/01/20 06:03:04;;;;;;;15.25;8.02;;;-1.00;99.90;;;;;;4984052;28;20031;-76
2023/01/20 06:05:30;;;;;;;12.23;6.65;;;-0.90;99.90;;;;;;4986953;28;20031;-75
2023/01/20 06:07:56;;;;;;;15.80;7.03;;;-0.90;99.90;;;;;;4969374;28;20031;-75
2023/01/20 06:10:29;;;;;;;12.70;6.55;;;-0.90;99.90;;;;;;4969091;28;20399;-75
2023/01/20 06:13:03;;;;;;;17.38;7.30;;;-1.00;99.90;;;;;;4970921;28;20030;-74
2023/01/20 06:15:29;;;;;;;14.25;7.72;;;-0.90;99.90;;;;;;4964766;28;20392;-75
2023/01/20 06:17:54;;;;;;;14.57;7.32;;;-0.90;99.90;;;;;;4964904;28;20033;-75
2023/01/20 06:20:21;;;;;;;16.13;7.50;;;-0.90;99.90;;;;;;4968800;28;20039;-75
2023/01/20 06:22:46;;;;;;;12.48;7.07;;;-0.90;99.90;;;;;;4970252;28;20034;-75
2023/01/20 06:25:12;;;;;;;13.88;7.43;;;-0.90;99.90;;;;;;4971904;28;20105;-74
2023/01/20 06:27:37;;;;;;;13.77;7.60;;;-0.80;99.90;;;;;;4972173;28;20487;-74
2023/01/20 06:30:04;;;;;;;19.88;8.77;;;-0.80;99.90;;;;;;4973687;28;20033;-74
2023/01/20 06:32:30;;;;;;;12.32;6.97;;;-0.80;99.90;;;;;;4974718;28;20062;-73
2023/01/20 06:34:56;;;;;;;15.88;8.10;;;-0.80;99.90;;;;;;4976686;28;20065;-74
2023/01/20 06:37:21;;;;;;;17.05;8.30;;;-0.80;99.90;;;;;;4976401;28;20034;-73
2023/01/20 06:39:47;;;;;;;15.48;8.68;;;-0.70;99.90;;;;;;4971948;28;20432;-74
2023/01/20 06:42:12;;;;;;;16.63;8.15;;;-0.70;99.90;;;;;;4972935;28;20027;-74
2023/01/20 06:44:38;;;;;;;17.90;9.27;;;-0.70;99.90;;;;;;4975068;28;20058;-74
2023/01/20 06:47:03;;;;;;;22.17;9.65;;;-0.70;99.90;;;;;;4972140;28;20077;-73
2023/01/20 06:49:29;;;;;;;17.95;8.80;;;-0.60;99.90;;;;;;4993006;28;20037;-74
2023/01/20 06:51:55;;;;;;;15.70;9.13;;;-0.70;99.90;;;;;;4978344;28;20058;-74
2023/01/20 06:54:21;;;;;;;17.38;9.60;;;-0.60;99.90;;;;;;4979522;28;20026;-74
2023/01/20 06:56:46;;;;;;;17.83;9.05;;;-0.60;99.90;;;;;;4973324;28;21561;-73
2023/01/20 06:59:12;;;;;;;16.95;9.80;;;-0.60;99.90;;;;;;4973342;28;20054;-74
2023/01/20 07:01:39;;;;;;;20.70;9.15;;;-0.60;99.90;;;;;;4972266;28;20066;-74
2023/01/20 07:04:05;;;;;;;16.90;9.63;;;-0.50;99.90;;;;;;4975029;28;20055;-75
2023/01/20 07:06:41;;;;;;;21.48;9.80;;;-0.50;99.90;;;;;;4975732;28;20105;-74
2023/01/20 07:09:11;;;;;;;14.35;8.10;;;-0.50;99.90;;;;;;4970559;28;20472;-75
2023/01/20 07:11:37;;;;;;;12.25;7.88;;;-0.50;99.90;;;;;;4970558;28;20035;-74
2023/01/20 07:14:04;;;;;;;18.33;9.15;;;-0.50;99.90;;;;;;4977646;28;20027;-74
2023/01/20 07:16:30;;;;;;;19.65;9.38;;;-0.50;99.90;;;;;;4971846;28;20031;-74
2023/01/20 07:18:56;;;;;;;26.63;11.57;;;-0.40;99.90;;;;;;4972178;28;20034;-73
2023/01/20 07:21:22;;;;;;;17.83;9.82;;;-0.40;99.90;;;;;;4977938;28;20062;-73
2023/01/20 07:23:48;;;;;;;23.15;9.63;;;-0.50;99.90;;;;;;4977027;28;20018;-73
2023/01/20 07:26:19;;;;;;;18.02;10.45;;;-0.50;99.90;;;;;;4976762;28;20118;-74
2023/01/20 07:28:45;;;;;;;23.05;11.57;;;-0.40;99.90;;;;;;4978582;28;20361;-74
2023/01/20 07:31:19;;;;;;;19.75;11.15;;;-0.40;99.90;;;;;;4974663;28;20002;-74
2023/01/20 07:33:45;;;;;;;22.45;12.32;;;-0.40;99.90;;;;;;4975152;28;20082;-74
2023/01/20 07:36:12;;;;;;;19.77;11.40;;;-0.40;99.90;;;;;;4978167;28;20027;-73
2023/01/20 07:38:38;;;;;;;22.27;12.65;;;-0.30;99.90;;;;;;4976141;28;20027;-72
2023/01/20 07:41:06;;;;;;;21.13;11.50;;;-0.30;99.90;;;;;;4974933;28;20434;-72
2023/01/20 07:43:32;;;;;;;23.10;11.32;;;-0.30;99.90;;;;;;4969343;28;20114;-73
2023/01/20 07:45:59;;;;;;;21.10;11.35;;;-0.20;99.90;;;;;;4991919;28;20104;-72
2023/01/20 07:48:26;;;;;;;19.05;12.30;;;-0.20;99.90;;;;;;4976179;28;20035;-72
2023/01/20 07:51:00;;;;;;;19.83;12.27;;;-0.30;99.90;;;;;;4980407;28;20102;-73
2023/01/20 07:53:36;;;;;;;20.50;11.75;;;-0.20;99.90;;;;;;4977036;28;20419;-73
2023/01/20 07:56:10;;;;;;;22.15;12.15;;;-0.20;99.90;;;;;;4989143;28;20027;-72
2023/01/20 07:58:35;;;;;;;21.90;12.10;;;-0.20;99.90;;;;;;4978977;28;20054;-73
2023/01/20 08:01:12;;;;;;;22.50;11.40;;;-0.20;99.90;;;;;;4976665;28;20047;-73
2023/01/20 08:03:38;;;;;;;20.25;11.57;;;-0.10;99.90;;;;;;4976541;28;20027;-73
2023/01/20 08:06:06;;;;;;;21.30;12.25;;;-0.10;99.90;;;;;;4976734;28;20113;-73
2023/01/20 08:08:32;;;;;;;22.00;12.48;;;-0.20;99.90;;;;;;4983906;28;20031;-73
2023/01/20 08:11:00;;;;;;;24.10;12.80;;;-0.20;99.90;;;;;;4975488;28;20033;-73
2023/01/20 08:13:26;;;;;;;21.98;12.40;;;-0.20;99.90;;;;;;4977329;28;20023;-73
2023/01/20 08:15:52;;;;;;;19.75;11.43;;;-0.10;99.90;;;;;;4975098;28;20089;-72
2023/01/20 08:18:18;;;;;;;22.73;11.95;;;-0.20;99.90;;;;;;4973883;28;20122;-73
2023/01/20 08:20:43;;;;;;;22.60;12.23;;;-0.10;99.90;;;;;;4973625;28;20061;-73
2023/01/20 08:23:09;;;;;;;22.50;12.95;;;-0.10;99.90;;;;;;4976528;28;20113;-72
2023/01/20 08:25:37;;;;;;;23.13;14.15;;;-0.10;99.90;;;;;;4974394;28;20042;-73
2023/01/20 08:28:03;;;;;;;24.90;12.90;;;0.00;99.90;;;;;;4976126;28;20035;-73
2023/01/20 08:30:29;;;;;;;27.15;14.50;;;0.00;99.90;;;;;;4974078;28;20027;-73
2023/01/20 08:32:55;;;;;;;22.20;13.52;;;0.00;99.90;;;;;;4973186;28;20032;-74
2023/01/20 08:35:20;;;;;;;24.27;12.98;;;0.10;99.90;;;;;;4973762;28;20027;-73
2023/01/20 08:37:46;;;;;;;25.50;13.27;;;0.10;99.90;;;;;;4974271;28;20035;-73
2023/01/20 08:40:12;;;;;;;23.55;12.70;;;0.10;99.90;;;;;;4976537;28;20029;-73
2023/01/20 08:42:38;;;;;;;18.30;11.18;;;0.10;99.90;;;;;;4975678;28;20065;-73
2023/01/20 08:45:06;;;;;;;18.25;11.43;;;0.20;99.90;;;;;;4989693;28;20082;-73
2023/01/20 08:47:36;;;;;;;19.80;11.63;;;0.10;99.90;;;;;;4973201;28;20384;-73
2023/01/20 08:50:04;;;;;;;18.63;10.68;;;0.10;99.90;;;;;;4979086;28;20027;-73
2023/01/20 08:52:30;;;;;;;23.67;12.48;;;0.20;99.90;;;;;;4972305;28;20030;-73
2023/01/20 08:54:57;;;;;;;22.80;10.68;;;0.20;99.90;;;;;;4973884;28;20598;-73
2023/01/20 08:57:25;;;;;;;19.90;11.55;;;0.10;99.90;;;;;;4974600;28;20074;-73
2023/01/20 08:59:51;;;;;;;20.70;12.63;;;0.10;99.90;;;;;;4972989;28;20031;-73
2023/01/20 09:02:16;;;;;;;19.48;11.82;;;0.10;99.90;;;;;;4975604;28;20364;-73
2023/01/20 09:04:42;;;;;;;25.75;11.85;;;0.20;99.90;;;;;;4972409;28;20663;-75
2023/01/20 09:07:11;;;;;;;20.30;9.95;;;0.20;99.90;;;;;;4975161;28;20027;-73
2023/01/20 09:09:37;;;;;;;19.90;11.05;;;0.30;99.90;;;;;;4975971;28;20030;-73
2023/01/20 09:12:04;;;;;;;18.50;10.20;;;0.30;99.90;;;;;;4973093;28;20042;-73
2023/01/20 09:14:29;;;;;;;17.55;10.82;;;0.30;99.90;;;;;;4976427;28;20525;-73
2023/01/20 09:16:55;;;;;;;21.25;10.68;;;0.40;99.90;;;;;;4973045;28;20035;-73
2023/01/20 09:19:21;;;;;;;17.77;10.88;;;0.40;99.90;;;;;;4975259;28;20022;-75
2023/01/20 09:21:47;;;;;;;19.48;10.38;;;0.40;99.90;;;;;;4973628;28;20023;-73
2023/01/20 09:24:13;;;;;;;23.17;11.57;;;0.50;99.90;;;;;;4968332;28;20053;-73
2023/01/20 09:26:39;;;;;;;18.55;10.15;;;0.50;99.90;;;;;;4976681;28;20034;-73
2023/01/20 09:29:08;;;;;;;15.90;9.52;;;0.50;99.90;;;;;;4976191;28;20027;-73
2023/01/20 09:31:47;;;;;;;18.08;10.05;;;0.60;99.90;;;;;;4974681;28;20031;-73
2023/01/20 09:34:17;;;;;;;16.58;10.23;;;0.60;99.90;;;;;;4974446;28;20097;-71
2023/01/20 09:36:44;;;;;;;17.27;9.93;;;0.70;99.90;;;;;;4977945;28;20027;-71
2023/01/20 09:45:21;;;;;;;22.02;11.32;;;0.80;99.90;;;;;;4970999;28;20046;-70
2023/01/20 09:47:48;;;;;;;22.05;11.00;;;0.80;99.90;;;;;;4975825;28;20502;-71
2023/01/20 09:53:03;;;;;;;16.88;9.82;;;0.80;99.90;;;;;;4974598;28;20403;-71
2023/01/20 09:55:50;;;;;;;20.75;10.70;;;0.90;99.90;;;;;;4972810;28;20027;-71
2023/01/20 09:58:40;;;;;;;17.55;9.93;;;0.90;99.90;;;;;;4973801;28;20412;-71
2023/01/20 10:01:17;;;;;;;20.48;10.35;;;0.90;99.90;;;;;;4974024;28;20054;-72
2023/01/20 10:03:48;;;;;;;17.00;9.90;;;1.00;99.90;;;;;;4976928;28;20407;-71
2023/01/20 10:06:25;;;;;;;30.50;10.32;;;1.00;99.90;;;;;;4976448;28;20030;-71
2023/01/20 10:08:55;;;;;;;14.77;8.65;;;1.00;99.90;;;;;;4977750;28;20038;-71
2023/01/20 10:11:23;;;;;;;16.90;8.43;;;1.00;99.90;;;;;;4972269;28;20023;-71
2023/01/20 10:14:22;;;;;;;14.02;8.98;;;1.10;99.90;;;;;;4979123;28;20110;-71
2023/01/20 10:17:01;;;;;;;19.80;9.00;;;1.10;99.90;;;;;;4969421;28;20035;-71
2023/01/20 10:19:52;;;;;;;16.88;8.63;;;1.20;99.90;;;;;;4973217;28;20492;-71
2023/01/20 10:22:41;;;;;;;18.55;9.45;;;1.20;99.90;;;;;;4978015;28;20047;-71
2023/01/20 10:25:31;;;;;;;16.75;8.77;;;1.20;99.90;;;;;;4975541;28;20023;-71
2023/01/20 10:28:10;;;;;;;16.70;9.60;;;1.30;99.90;;;;;;4977130;28;20023;-71
2023/01/20 10:30:39;;;;;;;17.50;8.98;;;1.30;99.90;;;;;;4973124;28;20034;-71
2023/01/20 10:33:11;;;;;;;16.35;9.52;;;1.30;99.90;;;;;;4975146;28;20369;-70
2023/01/20 10:35:45;;;;;;;17.77;9.43;;;1.30;99.90;;;;;;4975885;28;20093;-71
2023/01/20 10:38:18;;;;;;;;;;;1.30;99.90;;;;;;4977303;28;20027;-71
2023/01/20 10:40:46;;;;;;;13.98;7.90;;;1.30;99.90;;;;;;4981662;28;19910;-72
2023/01/20 10:43:14;;;;;;;17.73;9.15;;;1.30;99.90;;;;;;4979863;28;20051;-72
2023/01/20 10:45:49;;;;;;;19.52;8.82;;;1.30;99.90;;;;;;4976514;28;20027;-72
2023/01/20 10:48:31;;;;;;;12.77;7.18;;;1.40;99.90;;;;;;4973562;28;20027;-72
2023/01/20 10:51:11;;;;;;;15.60;8.05;;;1.40;99.90;;;;;;4973003;28;20424;-72
2023/01/20 10:54:14;;;;;;;12.10;6.90;;;1.40;99.90;;;;;;4973816;28;20027;-72
2023/01/20 10:56:52;;;;;;;13.38;6.78;;;1.50;99.90;;;;;;4974116;28;20112;-72
2023/01/20 10:59:22;;;;;;;10.00;6.60;;;1.50;99.90;;;;;;4975657;28;20106;-72
2023/01/20 11:01:51;;;;;;;13.93;7.43;;;1.60;99.90;;;;;;4973919;28;20020;-72
2023/01/20 11:04:19;;;;;;;12.27;7.38;;;1.60;99.90;;;;;;4974296;28;20070;-73
2023/01/20 11:06:53;;;;;;;12.63;6.97;;;1.60;99.90;;;;;;4978980;28;20023;-73
2023/01/20 11:09:28;;;;;;;12.85;6.15;;;1.70;99.90;;;;;;4971644;28;20050;-73
2023/01/20 11:11:55;;;;;;;12.07;6.03;;;1.70;99.90;;;;;;4987694;28;20029;-72
2023/01/20 11:14:21;;;;;;;14.25;8.48;;;1.70;99.90;;;;;;4971016;28;20033;-73
2023/01/20 11:16:53;;;;;;;14.98;8.05;;;1.80;99.90;;;;;;4973285;28;20094;-73
2023/01/20 11:19:19;;;;;;;13.50;7.35;;;1.80;99.90;;;;;;4978468;28;20049;-73
2023/01/20 11:21:47;;;;;;;11.00;6.05;;;1.80;99.90;;;;;;4976580;28;20519;-74
2023/01/20 11:24:30;;;;;;;12.35;6.28;;;1.90;99.90;;;;;;4979117;28;20383;-73
2023/01/20 11:27:05;;;;;;;11.65;6.05;;;1.90;99.90;;;;;;4978489;28;20439;-73
2023/01/20 11:29:35;;;;;;;12.13;5.32;;;1.90;99.90;;;;;;4975013;28;20079;-73
2023/01/20 11:32:01;;;;;;;12.88;8.45;;;1.90;99.90;;;;;;4977377;28;20030;-72
2023/01/20 11:34:33;;;;;;;14.75;7.97;;;1.90;99.90;;;;;;4976223;28;20033;-73
2023/01/20 11:37:05;;;;;;;10.45;7.38;;;1.90;99.90;;;;;;4973206;28;20051;-73
2023/01/20 11:39:34;;;;;;;10.90;6.57;;;1.80;99.90;;;;;;4972590;28;20026;-75
2023/01/20 11:42:22;;;;;;;9.52;5.35;;;1.80;99.90;;;;;;4972574;28;20051;-74
2023/01/20 11:44:53;;;;;;;12.18;7.80;;;1.80;99.90;;;;;;4969125;28;20475;-74
2023/01/20 11:47:32;;;;;;;17.15;10.60;;;1.70;99.90;;;;;;4976917;28;20106;-73
2023/01/20 11:50:07;;;;;;;14.73;8.10;;;1.70;99.90;;;;;;4974212;28;20023;-73
2023/01/20 11:52:44;;;;;;;10.80;6.68;;;1.70;99.90;;;;;;4974984;28;20365;-73
2023/01/20 11:55:18;;;;;;;15.77;7.93;;;1.80;99.90;;;;;;4965109;28;20027;-73
2023/01/20 11:57:54;;;;;;;10.50;6.13;;;1.80;99.90;;;;;;4972580;28;20098;-73
2023/01/20 12:00:23;;;;;;;9.45;5.07;;;1.80;99.90;;;;;;4973460;28;20093;-73
2023/01/20 12:03:02;;;;;;;10.35;5.50;;;1.80;99.90;;;;;;4973714;28;20023;-73
2023/01/20 12:05:38;;;;;;;11.57;6.03;;;1.90;99.90;;;;;;4973286;28;20034;-73
2023/01/20 12:08:13;;;;;;;19.00;10.38;;;1.90;99.90;;;;;;4972207;28;20030;-74
2023/01/20 12:10:40;;;;;;;11.82;8.02;;;1.90;99.90;;;;;;4988039;28;20041;-74
2023/01/20 12:14:18;;;;;;;11.82;6.93;;;1.80;99.90;;;;;;4974127;28;20379;-73
2023/01/20 12:16:23;;;;;;;12.80;6.78;;;1.80;99.90;;;;;;4973585;28;20511;-75
2023/01/20 12:18:54;;;;;;;15.38;8.00;;;1.90;99.90;;;;;;4974304;28;20050;-74
2023/01/20 12:21:27;;;;;;;13.15;7.03;;;1.80;99.90;;;;;;4975313;28;20023;-73
2023/01/20 12:24:08;;;;;;;12.93;7.32;;;1.80;99.90;;;;;;4970127;28;20085;-74
2023/01/20 12:26:35;;;;;;;16.63;6.88;;;1.70;99.90;;;;;;4975615;28;20030;-75
2023/01/20 12:29:22;;;;;;;14.02;6.38;;;1.80;99.90;;;;;;4971323;28;20027;-72
2023/01/20 12:31:48;;;;;;;11.00;6.35;;;1.80;99.90;;;;;;4974705;28;20559;-74
2023/01/20 12:34:26;;;;;;;12.73;7.03;;;1.80;99.90;;;;;;4973781;28;20069;-74
2023/01/20 12:37:00;;;;;;;17.35;8.35;;;1.90;99.90;;;;;;4970955;28;20023;-73
2023/01/20 12:39:57;;;;;;;14.20;7.45;;;1.90;99.90;;;;;;4966961;28;20034;-73
2023/01/20 12:42:59;;;;;;;21.23;10.40;;;1.90;99.90;;;;;;4971352;28;20018;-74
2023/01/20 12:45:40;;;;;;;11.35;7.13;;;2.00;99.90;;;;;;4968397;28;20030;-75
2023/01/20 12:48:41;;;;;;;12.75;6.95;;;2.00;99.90;;;;;;4988845;28;20023;-73
2023/01/20 12:51:19;;;;;;;16.98;7.53;;;2.00;99.90;;;;;;4971956;28;20113;-73
2023/01/20 12:53:55;;;;;;;15.63;7.65;;;2.00;99.90;;;;;;4972816;28;20027;-73
2023/01/20 12:56:39;;;;;;;12.40;7.15;;;2.10;99.90;;;;;;4977357;28;20033;-72
2023/01/20 12:59:27;;;;;;;17.15;7.10;;;2.00;99.90;;;;;;4970441;28;20082;-74
2023/01/20 13:02:03;;;;;;;11.07;6.10;;;2.00;99.90;;;;;;4975453;28;20031;-74
2023/01/20 13:04:43;;;;;;;14.35;7.80;;;2.00;99.90;;;;;;4975290;28;20099;-74
2023/01/20 13:07:18;;;;;;;12.85;7.72;;;2.00;99.90;;;;;;4987544;28;20023;-74
2023/01/20 13:10:13;;;;;;;13.45;7.60;;;2.00;99.90;;;;;;4973880;28;20075;-73